Time;durP1;ratioP1;P1;durP2;ratioP2;P2;SDS_P1;SDS_P2;PMS_P1;PMS_P2;Temp;Humidity;BMP_temperature;BMP_pressure;BME280_temperature;BME280_humidity;BME280_pressure;Samples;Min_cycle;Max_cycle;Signal;HPM_P1;HPM_P2
2022/01/11 00:00:25;;;;;;;39.90;24.88;;;6.20;66.80;;;;;;5035643;28;20041;-84
2022/01/11 00:02:53;;;;;;;30.33;20.08;;;6.20;65.90;;;;;;5054048;28;20040;-84
2022/01/11 00:05:26;;;;;;;37.17;22.98;;;6.10;66.50;;;;;;5036753;28;20025;-84
2022/01/11 00:07:54;;;;;;;34.15;23.63;;;6.20;66.80;;;;;;5046148;28;20362;-84
2022/01/11 00:10:28;;;;;;;29.83;21.85;;;6.10;66.00;;;;;;5051614;28;20021;-84
2022/01/11 00:12:55;;;;;;;34.03;22.38;;;6.20;66.60;;;;;;5032984;28;20120;-83
2022/01/11 00:15:21;;;;;;;31.30;21.65;;;6.20;66.60;;;;;;5036226;28;20037;-80
2022/01/11 00:17:47;;;;;;;31.75;21.90;;;6.30;66.70;;;;;;5044288;28;20035;-80
2022/01/11 00:20:15;;;;;;;34.95;22.15;;;6.30;66.80;;;;;;5053142;28;20492;-80
2022/01/11 00:25:28;;;;;;;30.40;21.15;;;6.40;66.80;;;;;;5052155;28;20045;-80
2022/01/11 00:27:53;;;;;;;35.55;22.02;;;6.40;66.80;;;;;;5053034;28;20033;-81
2022/01/11 00:30:20;;;;;;;32.42;21.33;;;6.40;66.70;;;;;;5051686;28;20040;-81
2022/01/11 00:32:51;;;;;;;30.42;21.48;;;6.40;66.60;;;;;;5050616;28;20061;-82
2022/01/11 00:35:21;;;;;;;29.90;20.55;;;6.40;66.70;;;;;;5054461;28;20033;-82
2022/01/11 00:37:47;;;;;;;29.02;20.25;;;6.40;66.80;;;;;;5035554;28;20041;-81
2022/01/11 00:40:13;;;;;;;28.10;19.52;;;6.40;66.90;;;;;;5053335;28;20486;-81
2022/01/11 00:42:39;;;;;;;27.30;19.73;;;6.40;66.70;;;;;;5036598;28;20041;-81
2022/01/11 00:45:09;;;;;;;26.30;18.23;;;6.40;66.70;;;;;;5045809;28;20448;-81
2022/01/11 00:47:35;;;;;;;;;;;6.40;66.70;;;;;;5053457;28;20035;-81
2022/01/11 00:50:02;;;;;;;26.75;16.85;;;6.40;66.60;;;;;;5053064;28;19933;-82
2022/01/11 00:52:28;;;;;;;24.98;17.73;;;6.40;66.70;;;;;;5047594;28;20431;-81
2022/01/11 00:54:55;;;;;;;25.27;17.98;;;6.40;66.80;;;;;;5052214;28;20032;-81
2022/01/11 00:57:21;;;;;;;25.23;17.92;;;6.40;66.70;;;;;;5032247;28;20410;-81
2022/01/11 00:59:47;;;;;;;25.15;17.05;;;6.30;66.70;;;;;;5047290;28;20405;-81
2022/01/11 01:02:12;;;;;;;23.85;17.17;;;6.40;66.70;;;;;;5051267;28;20124;-82
2022/01/11 01:04:38;;;;;;;25.50;17.17;;;6.40;66.80;;;;;;5053102;28;20051;-82
2022/01/11 01:07:07;;;;;;;24.13;17.17;;;6.40;66.70;;;;;;5047141;28;20075;-81
2022/01/11 01:09:51;;;;;;;24.65;16.50;;;6.40;66.70;;;;;;5049881;28;20048;-81
2022/01/11 01:12:16;;;;;;;25.38;17.20;;;6.30;66.70;;;;;;5047123;28;20033;-82
2022/01/11 01:14:42;;;;;;;25.10;17.13;;;6.40;66.80;;;;;;5040750;28;20496;-82
2022/01/11 01:17:08;;;;;;;24.83;18.05;;;6.40;67.00;;;;;;5052745;28;20040;-81
2022/01/11 01:19:33;;;;;;;25.13;17.02;;;6.40;67.10;;;;;;5047342;28;20167;-82
2022/01/11 01:21:59;;;;;;;25.23;16.90;;;6.40;67.00;;;;;;5052177;28;20474;-81
2022/01/11 01:24:25;;;;;;;23.88;17.33;;;6.40;67.10;;;;;;5051522;28;20112;-81
2022/01/11 01:26:50;;;;;;;22.52;16.92;;;6.40;67.10;;;;;;5050821;28;20412;-82
2022/01/11 01:29:16;;;;;;;23.50;16.58;;;6.40;67.10;;;;;;5032936;28;20056;-82
2022/01/11 01:31:42;;;;;;;24.30;17.48;;;6.40;67.30;;;;;;5052143;28;20094;-82
2022/01/11 01:34:08;;;;;;;22.30;15.32;;;6.30;67.50;;;;;;5052652;28;20505;-82
2022/01/11 01:36:34;;;;;;;22.25;15.63;;;6.30;67.60;;;;;;5054586;28;20041;-82
2022/01/11 01:39:00;;;;;;;21.88;15.13;;;6.30;67.30;;;;;;5035244;28;20040;-82
2022/01/11 01:41:26;;;;;;;25.05;16.13;;;6.30;67.20;;;;;;5038977;28;20037;-81
2022/01/11 01:43:56;;;;;;;24.48;17.45;;;6.30;66.60;;;;;;5061871;28;20041;-81
2022/01/11 01:46:23;;;;;;;23.08;16.17;;;6.30;66.70;;;;;;5068987;28;20091;-82
2022/01/11 01:48:49;;;;;;;23.98;16.70;;;6.20;66.40;;;;;;5065733;28;20032;-82
2022/01/11 01:51:15;;;;;;;22.73;17.05;;;6.20;66.60;;;;;;5051127;28;20042;-82
2022/01/11 01:53:47;;;;;;;23.40;16.98;;;6.20;66.70;;;;;;5052675;28;20084;-82
2022/01/11 01:56:13;;;;;;;27.27;17.58;;;6.20;66.90;;;;;;5051908;28;20041;-81
2022/01/11 01:58:39;;;;;;;28.98;18.40;;;6.20;66.90;;;;;;5051148;28;20159;-82
2022/01/11 02:01:06;;;;;;;24.73;17.33;;;6.20;66.80;;;;;;5033588;28;20045;-81
2022/01/11 02:03:38;;;;;;;23.38;17.48;;;6.30;66.80;;;;;;5051696;28;20064;-82
2022/01/11 02:06:06;;;;;;;26.48;18.38;;;6.20;66.70;;;;;;5052417;28;20157;-82
2022/01/11 02:08:32;;;;;;;22.83;16.20;;;6.30;66.80;;;;;;5033959;28;20127;-82
2022/01/11 02:10:58;;;;;;;22.70;16.90;;;6.20;66.80;;;;;;5049605;28;20076;-82
2022/01/11 02:13:24;;;;;;;23.13;16.73;;;6.20;67.00;;;;;;5052340;28;20061;-82
2022/01/11 02:15:50;;;;;;;23.60;16.52;;;6.20;67.00;;;;;;5050533;28;20029;-82
2022/01/11 02:18:20;;;;;;;19.42;14.82;;;6.20;66.20;;;;;;5048400;28;20033;-82
2022/01/11 02:20:47;;;;;;;23.73;17.55;;;6.20;66.40;;;;;;5052811;28;20595;-81
2022/01/11 02:23:14;;;;;;;24.08;15.75;;;6.20;66.30;;;;;;5053992;28;20111;-82
2022/01/11 02:25:41;;;;;;;22.85;16.30;;;6.20;66.10;;;;;;5033069;28;20034;-82
2022/01/11 02:28:08;;;;;;;24.15;17.05;;;6.20;65.60;;;;;;5054280;28;20071;-83
2022/01/11 02:30:34;;;;;;;26.60;16.58;;;6.10;65.10;;;;;;5053784;28;20069;-81
2022/01/11 02:33:04;;;;;;;24.38;17.52;;;6.10;65.30;;;;;;5044398;28;20112;-82
2022/01/11 02:35:30;;;;;;;25.67;18.35;;;6.10;65.20;;;;;;5054240;28;20128;-82
2022/01/11 02:37:56;;;;;;;25.85;17.35;;;6.10;65.10;;;;;;5041997;28;20064;-81
2022/01/11 02:40:21;;;;;;;28.48;18.45;;;6.10;65.60;;;;;;5041747;28;20496;-80
2022/01/11 02:42:47;;;;;;;27.92;18.15;;;6.10;65.20;;;;;;5056017;28;20029;-81
2022/01/11 02:45:16;;;;;;;28.23;18.38;;;6.10;65.30;;;;;;5033973;28;20470;-80
2022/01/11 02:47:44;;;;;;;27.13;18.98;;;6.10;65.30;;;;;;5047844;28;20568;-81
2022/01/11 02:50:10;;;;;;;29.02;18.77;;;6.10;65.30;;;;;;5042445;28;20168;-81
2022/01/11 02:52:36;;;;;;;25.65;17.23;;;6.10;65.80;;;;;;5043696;28;20029;-81
2022/01/11 02:55:06;;;;;;;28.80;18.33;;;6.10;65.30;;;;;;5051803;28;20048;-82
2022/01/11 02:57:32;;;;;;;28.13;18.58;;;6.00;65.40;;;;;;5034235;28;20103;-82
2022/01/11 02:59:58;;;;;;;28.02;17.85;;;6.00;65.60;;;;;;5030217;28;20038;-81
2022/01/11 03:02:24;;;;;;;25.45;17.50;;;6.00;65.70;;;;;;5048497;28;20037;-81
2022/01/11 03:04:50;;;;;;;27.13;18.25;;;6.00;65.80;;;;;;5035115;28;20040;-80
2022/01/11 03:07:20;;;;;;;24.38;16.73;;;6.00;65.80;;;;;;5054140;28;20068;-78
2022/01/11 03:10:28;;;;;;;;;;;6.00;65.70;;;;;;5029269;28;20037;-78
2022/01/11 03:12:37;;;;;;;22.77;14.82;;;6.00;65.70;;;;;;5048903;28;19955;-77
2022/01/11 03:15:03;;;;;;;21.05;15.60;;;5.90;65.70;;;;;;5037031;28;20481;-78
2022/01/11 03:17:29;;;;;;;26.65;18.02;;;5.90;66.30;;;;;;5049539;28;20044;-78
2022/01/11 03:19:55;;;;;;;24.83;16.55;;;5.80;65.80;;;;;;5049078;28;20047;-78
2022/01/11 03:22:21;;;;;;;25.15;17.90;;;5.80;66.00;;;;;;5052112;28;20029;-79
2022/01/11 03:24:47;;;;;;;26.40;18.35;;;5.90;66.30;;;;;;5036227;28;20037;-79
2022/01/11 03:27:13;;;;;;;25.75;17.63;;;5.90;66.10;;;;;;5029644;28;20040;-78
2022/01/11 03:29:39;;;;;;;26.27;17.85;;;5.90;66.00;;;;;;5052427;28;20041;-79
2022/01/11 03:32:07;;;;;;;26.27;17.70;;;5.90;66.20;;;;;;5042092;28;20075;-78
2022/01/11 03:34:33;;;;;;;23.73;16.80;;;5.90;66.30;;;;;;5049333;28;20120;-78
2022/01/11 03:36:59;;;;;;;25.50;16.50;;;5.90;66.20;;;;;;5036651;28;20117;-81
2022/01/11 03:39:26;;;;;;;22.98;16.60;;;5.90;66.00;;;;;;5054801;28;20052;-81
2022/01/11 03:41:52;;;;;;;23.40;16.70;;;5.90;66.00;;;;;;5036901;28;20052;-81
2022/01/11 03:44:18;;;;;;;24.10;16.88;;;5.90;66.40;;;;;;5054586;28;20476;-81
2022/01/11 03:46:43;;;;;;;24.17;17.27;;;5.90;66.40;;;;;;5052554;28;20380;-81
2022/01/11 03:49:09;;;;;;;21.33;15.82;;;5.90;66.20;;;;;;5053762;28;20045;-82
2022/01/11 03:51:38;;;;;;;23.05;15.32;;;5.90;66.30;;;;;;5054277;28;20094;-81
2022/01/11 03:54:11;;;;;;;27.73;17.83;;;5.90;66.10;;;;;;5053879;28;20029;-81
2022/01/11 03:56:37;;;;;;;25.27;16.73;;;5.90;66.20;;;;;;5027821;28;20044;-82
2022/01/11 03:59:06;;;;;;;24.30;16.33;;;5.90;66.40;;;;;;5053462;28;20033;-82
2022/01/11 04:01:36;;;;;;;24.23;16.10;;;5.80;66.30;;;;;;5047031;28;20037;-80
2022/01/11 04:04:03;;;;;;;23.70;16.85;;;5.80;66.20;;;;;;5054308;28;20516;-82
2022/01/11 04:06:29;;;;;;;21.13;15.57;;;5.80;65.70;;;;;;5053644;28;20049;-81
2022/01/11 04:08:55;;;;;;;23.58;16.48;;;5.80;65.80;;;;;;5053997;28;20048;-82
2022/01/11 04:11:21;;;;;;;20.85;15.02;;;5.80;65.70;;;;;;5054187;28;20116;-81
2022/01/11 04:13:47;;;;;;;20.77;15.13;;;5.80;65.80;;;;;;5054112;28;20120;-81
2022/01/11 04:16:13;;;;;;;22.65;15.57;;;5.80;65.70;;;;;;5034909;28;20083;-82
2022/01/11 04:18:39;;;;;;;20.25;15.18;;;5.80;65.60;;;;;;5052400;28;20108;-82
2022/01/11 04:21:05;;;;;;;22.20;15.13;;;5.80;65.80;;;;;;5053088;28;20067;-81
2022/01/11 04:23:32;;;;;;;25.90;16.23;;;5.80;65.90;;;;;;5049548;28;20087;-81
2022/01/11 04:25:57;;;;;;;24.05;15.60;;;5.80;65.80;;;;;;5051127;28;20040;-81
2022/01/11 04:28:23;;;;;;;21.15;14.38;;;5.80;65.80;;;;;;5048868;28;20436;-82
2022/01/11 04:30:50;;;;;;;20.00;14.57;;;5.80;66.00;;;;;;5045690;28;20033;-83
2022/01/11 04:33:16;;;;;;;21.73;16.05;;;5.80;66.00;;;;;;5054630;28;20033;-84
2022/01/11 04:35:44;;;;;;;21.88;14.88;;;5.80;66.10;;;;;;5054823;28;20370;-84
2022/01/11 04:38:10;;;;;;;20.08;14.57;;;5.70;66.30;;;;;;5050555;28;20037;-84
2022/01/11 04:40:36;;;;;;;24.52;15.38;;;5.70;66.20;;;;;;5034593;28;20168;-83
2022/01/11 04:43:02;;;;;;;22.80;15.48;;;5.70;66.30;;;;;;5034628;28;20084;-83
2022/01/11 04:45:28;;;;;;;19.45;13.98;;;5.70;66.50;;;;;;5045513;28;20064;-83
2022/01/11 04:47:56;;;;;;;20.15;14.13;;;5.70;66.50;;;;;;5054487;28;20591;-83
2022/01/11 04:50:24;;;;;;;21.38;15.07;;;5.70;66.30;;;;;;5053975;28;20037;-82
2022/01/11 04:52:50;;;;;;;23.33;15.50;;;5.70;66.50;;;;;;5054175;28;20037;-82
2022/01/11 04:55:17;;;;;;;20.15;14.65;;;5.70;66.50;;;;;;5054053;28;20025;-83
2022/01/11 04:57:50;;;;;;;21.92;16.42;;;5.70;66.30;;;;;;5019192;28;20064;-82
2022/01/11 05:00:18;;;;;;;22.42;16.45;;;5.60;66.20;;;;;;5053979;28;20025;-82
2022/01/11 05:02:44;;;;;;;21.40;15.73;;;5.60;65.80;;;;;;5054097;28;20048;-82
2022/01/11 05:05:10;;;;;;;23.17;16.55;;;5.50;65.40;;;;;;5036375;28;20078;-82
2022/01/11 05:07:36;;;;;;;22.58;16.48;;;5.50;65.20;;;;;;5053801;28;20482;-81
2022/01/11 05:10:04;;;;;;;22.67;16.23;;;5.50;65.20;;;;;;5052989;28;20069;-82
2022/01/11 05:12:30;;;;;;;24.23;17.40;;;5.50;65.50;;;;;;5034935;28;20041;-81
2022/01/11 05:14:56;;;;;;;23.17;16.15;;;5.50;65.80;;;;;;5053067;28;20100;-83
2022/01/11 05:17:22;;;;;;;24.75;17.20;;;5.50;65.90;;;;;;5052925;28;20508;-81
2022/01/11 05:19:48;;;;;;;24.08;17.40;;;5.50;65.70;;;;;;5052099;28;20060;-82
2022/01/11 05:22:14;;;;;;;25.15;16.85;;;5.50;65.80;;;;;;5052972;28;20474;-83
2022/01/11 05:24:40;;;;;;;24.02;17.30;;;5.50;65.90;;;;;;5053525;28;20041;-83
2022/01/11 05:27:06;;;;;;;24.35;16.67;;;5.50;66.00;;;;;;5053269;28;20048;-83
2022/01/11 05:29:31;;;;;;;24.83;17.13;;;5.50;66.00;;;;;;5053158;28;20390;-84
2022/01/11 05:31:58;;;;;;;23.75;17.05;;;5.50;65.90;;;;;;5053340;28;20385;-84
2022/01/11 05:34:26;;;;;;;23.10;17.30;;;5.50;65.90;;;;;;5051756;28;20458;-82
2022/01/11 05:36:52;;;;;;;22.42;15.18;;;5.50;66.10;;;;;;5038970;28;20106;-82
2022/01/11 05:39:18;;;;;;;22.45;15.88;;;5.50;66.40;;;;;;5051139;28;20047;-82
2022/01/11 05:41:43;;;;;;;24.85;16.25;;;5.50;66.50;;;;;;5035818;28;20037;-82
2022/01/11 05:44:09;;;;;;;21.55;15.27;;;5.50;66.50;;;;;;5053298;28;20025;-82
2022/01/11 05:46:35;;;;;;;20.10;14.98;;;5.50;66.60;;;;;;5035040;28;20041;-83
2022/01/11 05:49:00;;;;;;;24.33;16.45;;;5.50;66.70;;;;;;5053229;28;20025;-82
2022/01/11 05:51:27;;;;;;;21.17;15.32;;;5.50;67.20;;;;;;5035170;28;20485;-82
2022/01/11 05:53:54;;;;;;;21.48;16.25;;;5.40;67.10;;;;;;5050341;28;20071;-81
2022/01/11 05:56:20;;;;;;;22.20;16.17;;;5.40;67.20;;;;;;5040604;28;20037;-79
2022/01/11 05:58:46;;;;;;;25.45;17.30;;;5.40;67.30;;;;;;5048090;28;20033;-79
2022/01/11 06:01:13;;;;;;;23.58;17.02;;;5.40;67.40;;;;;;5031720;28;20045;-78
2022/01/11 06:03:39;;;;;;;22.20;15.90;;;5.40;67.60;;;;;;5034149;28;20412;-77
2022/01/11 06:06:05;;;;;;;23.60;16.90;;;5.40;67.90;;;;;;5049616;28;20120;-78
2022/01/11 06:08:31;;;;;;;27.38;17.38;;;5.40;67.80;;;;;;5045543;28;20091;-80
2022/01/11 06:10:57;;;;;;;21.85;15.90;;;5.40;67.90;;;;;;5029184;28;20049;-80
2022/01/11 06:13:23;;;;;;;23.60;16.77;;;5.40;68.10;;;;;;5036345;28;20045;-81
2022/01/11 06:15:50;;;;;;;23.23;16.27;;;5.40;68.40;;;;;;5037319;28;20033;-81
2022/01/11 06:18:16;;;;;;;23.02;16.33;;;5.40;68.30;;;;;;5048273;28;20509;-80
2022/01/11 06:20:42;;;;;;;23.42;16.67;;;5.40;68.30;;;;;;5050581;28;20056;-81
2022/01/11 06:23:08;;;;;;;23.40;16.75;;;5.40;68.40;;;;;;5034290;28;20051;-80
2022/01/11 06:25:33;;;;;;;25.17;17.05;;;5.40;68.50;;;;;;5051288;28;20037;-81
2022/01/11 06:27:59;;;;;;;22.20;16.15;;;5.40;68.60;;;;;;5049942;28;20680;-79
2022/01/11 06:30:25;;;;;;;23.70;16.30;;;5.40;68.60;;;;;;5050101;28;20065;-82
2022/01/11 06:32:51;;;;;;;20.98;16.35;;;5.40;69.00;;;;;;5036126;28;20049;-83
2022/01/11 06:35:18;;;;;;;25.27;16.60;;;5.40;68.90;;;;;;5050557;28;20072;-82
2022/01/11 06:37:44;;;;;;;24.50;16.35;;;5.40;68.80;;;;;;5031037;28;20099;-82
2022/01/11 06:40:11;;;;;;;23.00;16.17;;;5.40;69.00;;;;;;5054840;28;20556;-81
2022/01/11 06:42:37;;;;;;;26.73;15.85;;;5.40;69.00;;;;;;5036477;28;20048;-83
2022/01/11 06:45:04;;;;;;;23.45;16.77;;;5.40;69.00;;;;;;5056255;28;20135;-83
2022/01/11 06:47:29;;;;;;;25.02;16.33;;;5.40;69.10;;;;;;5055899;28;20393;-81
2022/01/11 06:49:55;;;;;;;25.50;16.55;;;5.40;69.10;;;;;;5045767;28;20037;-83
2022/01/11 06:52:21;;;;;;;22.55;15.77;;;5.40;69.10;;;;;;5044316;28;20044;-83
2022/01/11 06:54:47;;;;;;;24.00;16.10;;;5.40;68.90;;;;;;5029342;28;20036;-83
2022/01/11 06:57:12;;;;;;;24.33;16.55;;;5.40;68.80;;;;;;5043021;28;20033;-82
2022/01/11 06:59:38;;;;;;;21.10;15.50;;;5.40;68.80;;;;;;5046918;28;20369;-83
2022/01/11 07:02:04;;;;;;;24.00;15.45;;;5.40;68.60;;;;;;5039480;28;20072;-83
2022/01/11 07:04:30;;;;;;;20.77;15.30;;;5.40;68.60;;;;;;5040826;28;20041;-82
2022/01/11 07:06:56;;;;;;;24.85;14.80;;;5.40;68.60;;;;;;5031417;28;20045;-82
2022/01/11 07:09:22;;;;;;;20.70;15.07;;;5.50;68.80;;;;;;5050107;28;20044;-83
2022/01/11 07:11:47;;;;;;;20.13;13.98;;;5.50;69.30;;;;;;5051300;28;20037;-81
2022/01/11 07:14:13;;;;;;;20.83;15.02;;;5.50;69.10;;;;;;5050808;28;20382;-81
2022/01/11 07:16:41;;;;;;;23.45;15.23;;;5.60;69.10;;;;;;5032769;28;20765;-81
2022/01/11 07:19:07;;;;;;;23.17;14.65;;;5.60;68.80;;;;;;5045669;28;20552;-81
2022/01/11 07:21:44;;;;;;;21.35;14.98;;;5.70;68.60;;;;;;5035458;28;20040;-81
2022/01/11 07:24:19;;;;;;;22.92;15.05;;;5.70;68.40;;;;;;5029344;28;20033;-85
2022/01/11 07:26:46;;;;;;;23.42;14.98;;;5.70;68.50;;;;;;5036291;28;20040;-81
2022/01/11 07:29:11;;;;;;;21.38;14.60;;;5.70;68.50;;;;;;5045446;28;20059;-81
2022/01/11 07:31:38;;;;;;;21.88;16.02;;;5.70;68.40;;;;;;5055085;28;20040;-81
2022/01/11 07:34:05;;;;;;;24.55;18.08;;;5.70;67.90;;;;;;5034653;28;20056;-81
2022/01/11 07:36:31;;;;;;;24.40;18.38;;;5.40;66.40;;;;;;5050489;28;20069;-83
2022/01/11 07:38:57;;;;;;;20.70;15.45;;;5.10;65.80;;;;;;5018626;28;20068;-84
2022/01/11 07:41:22;;;;;;;23.40;14.80;;;5.10;67.10;;;;;;5049239;28;20389;-82
2022/01/11 07:43:48;;;;;;;22.80;15.77;;;5.00;66.10;;;;;;5041722;28;20060;-83
2022/01/11 07:46:14;;;;;;;20.95;14.82;;;5.20;66.50;;;;;;5052919;28;20117;-83
2022/01/11 07:48:40;;;;;;;23.65;16.15;;;5.20;66.10;;;;;;5054997;28;20489;-83
2022/01/11 07:51:06;;;;;;;23.08;15.70;;;5.30;66.20;;;;;;5050213;28;20064;-84
2022/01/11 07:53:32;;;;;;;27.48;16.23;;;5.40;66.00;;;;;;5052879;28;20041;-82
2022/01/11 07:55:58;;;;;;;22.17;16.02;;;5.40;66.20;;;;;;5048705;28;20101;-79
2022/01/11 07:58:24;;;;;;;23.25;17.02;;;5.50;66.30;;;;;;5036210;28;20122;-80
2022/01/11 08:00:50;;;;;;;23.50;16.67;;;5.60;66.20;;;;;;5043094;28;20033;-80
2022/01/11 08:03:16;;;;;;;31.67;21.65;;;5.60;66.20;;;;;;5047839;28;20075;-81
2022/01/11 08:05:42;;;;;;;26.27;18.25;;;5.50;65.50;;;;;;5051713;28;20029;-77
2022/01/11 08:08:08;;;;;;;28.23;18.30;;;5.50;66.30;;;;;;5053012;28;20025;-78
2022/01/11 08:10:33;;;;;;;34.63;22.83;;;5.50;65.80;;;;;;5025673;28;20038;-77
2022/01/11 08:13:02;;;;;;;28.25;19.10;;;5.60;64.80;;;;;;5030629;28;20037;-77
2022/01/11 08:15:28;;;;;;;32.85;18.77;;;5.60;64.70;;;;;;5025779;28;20360;-77
2022/01/11 08:17:54;;;;;;;25.30;17.58;;;5.60;65.40;;;;;;5023978;28;20498;-77
2022/01/11 08:20:20;;;;;;;24.02;18.08;;;5.60;65.30;;;;;;5043046;28;20069;-77
2022/01/11 08:22:48;;;;;;;26.67;18.27;;;5.60;65.50;;;;;;5027506;28;20038;-78
2022/01/11 08:25:15;;;;;;;28.00;18.00;;;5.70;65.60;;;;;;5042404;28;20128;-77
2022/01/11 08:27:41;;;;;;;25.10;17.08;;;5.80;65.30;;;;;;5027635;28;20033;-82
2022/01/11 08:30:07;;;;;;;26.00;16.80;;;5.90;65.30;;;;;;5041913;28;20039;-77
2022/01/11 08:32:33;;;;;;;25.38;17.17;;;5.90;64.60;;;;;;5050273;28;20061;-77
2022/01/11 08:34:59;;;;;;;25.42;17.55;;;6.00;64.80;;;;;;5031821;28;20044;-78
2022/01/11 08:37:25;;;;;;;24.23;17.55;;;6.00;64.50;;;;;;5038987;28;20026;-79
2022/01/11 08:39:50;;;;;;;26.95;17.52;;;6.00;64.40;;;;;;5036373;28;20038;-81
2022/01/11 08:42:16;;;;;;;24.10;18.17;;;6.10;64.70;;;;;;5051970;28;20107;-81
2022/01/11 08:44:49;;;;;;;23.08;16.98;;;6.20;64.90;;;;;;5044489;28;20045;-80
2022/01/11 08:47:16;;;;;;;27.80;17.83;;;6.30;65.20;;;;;;5044092;28;20120;-82
2022/01/11 08:49:42;;;;;;;26.13;17.92;;;6.50;65.20;;;;;;5042747;28;20132;-82
2022/01/11 08:52:09;;;;;;;22.48;16.13;;;6.70;65.60;;;;;;5042304;28;20176;-82
2022/01/11 08:54:35;;;;;;;25.00;16.77;;;6.90;64.60;;;;;;5053984;28;20500;-81
2022/01/11 08:57:02;;;;;;;24.17;17.05;;;7.00;64.20;;;;;;5029877;28;20030;-80
2022/01/11 08:59:28;;;;;;;26.85;17.27;;;7.20;63.70;;;;;;5022984;28;20065;-81
2022/01/11 09:01:56;;;;;;;24.67;17.35;;;7.30;63.50;;;;;;5041114;28;20033;-81
2022/01/11 09:04:22;;;;;;;25.75;16.48;;;7.50;63.40;;;;;;5052871;28;20492;-82
2022/01/11 09:06:53;;;;;;;23.48;16.23;;;7.50;62.90;;;;;;5036395;28;20092;-82
2022/01/11 09:09:19;;;;;;;24.25;16.73;;;7.60;62.70;;;;;;5050287;28;20081;-79
2022/01/11 09:11:46;;;;;;;26.42;16.83;;;7.70;62.60;;;;;;5035993;28;20037;-77
2022/01/11 09:14:12;;;;;;;25.17;17.20;;;7.60;60.20;;;;;;5020812;28;20037;-77
2022/01/11 09:16:38;;;;;;;24.58;17.00;;;7.70;60.90;;;;;;5047749;28;20041;-77
2022/01/11 09:19:04;;;;;;;28.63;17.83;;;7.70;61.40;;;;;;5045284;28;20052;-77
2022/01/11 09:21:31;;;;;;;26.80;17.23;;;7.70;61.50;;;;;;5030378;28;20501;-78
2022/01/11 09:23:57;;;;;;;23.92;17.08;;;7.70;61.80;;;;;;5045248;28;20025;-77
2022/01/11 09:26:23;;;;;;;27.17;17.30;;;7.80;61.60;;;;;;5041838;28;20036;-82
2022/01/11 09:28:49;;;;;;;27.75;18.02;;;8.00;61.90;;;;;;5044739;28;20049;-82
2022/01/11 09:31:16;;;;;;;20.63;14.40;;;8.10;62.10;;;;;;5024484;28;20040;-81
2022/01/11 09:33:42;;;;;;;20.40;14.13;;;8.30;64.90;;;;;;5049057;28;20036;-82
2022/01/11 09:36:08;;;;;;;17.42;11.43;;;8.40;69.50;;;;;;5027509;28;20397;-83
2022/01/11 09:38:34;;;;;;;21.17;15.20;;;8.70;70.30;;;;;;5050061;28;20055;-83
2022/01/11 09:41:00;;;;;;;22.58;16.40;;;8.80;65.70;;;;;;5042254;28;20028;-83
2022/01/11 09:43:28;;;;;;;22.80;16.73;;;8.90;65.10;;;;;;5017829;28;20038;-83
2022/01/11 09:45:56;;;;;;;23.35;17.23;;;9.00;63.40;;;;;;5028870;28;20458;-83
2022/01/11 09:48:27;;;;;;;24.35;16.30;;;9.00;63.40;;;;;;5057393;28;20041;-82
2022/01/11 09:50:53;;;;;;;22.65;16.10;;;9.10;62.90;;;;;;5059482;28;20057;-84
2022/01/11 09:53:19;;;;;;;25.90;16.45;;;9.20;62.60;;;;;;5025898;28;20040;-84
2022/01/11 09:55:46;;;;;;;20.65;14.50;;;9.30;62.20;;;;;;5042722;28;20038;-84
2022/01/11 09:58:12;;;;;;;16.95;12.60;;;9.40;61.80;;;;;;5041838;28;20122;-84
2022/01/11 10:00:39;;;;;;;17.20;12.85;;;9.40;60.50;;;;;;5046389;28;20147;-84
2022/01/11 10:03:06;;;;;;;14.68;11.82;;;9.50;59.70;;;;;;5063615;28;20041;-84
2022/01/11 10:05:33;;;;;;;16.52;12.02;;;9.60;60.20;;;;;;5061336;28;20041;-83
2022/01/11 10:07:59;;;;;;;15.45;11.82;;;9.70;60.20;;;;;;5056601;28;20044;-82
2022/01/11 10:10:26;;;;;;;13.23;10.65;;;9.90;60.10;;;;;;5054859;28;20037;-83
2022/01/11 10:13:03;;;;;;;14.73;10.50;;;10.00;59.90;;;;;;5044386;28;20033;-82
2022/01/11 10:15:35;;;;;;;14.95;10.82;;;10.10;59.80;;;;;;5017804;28;20055;-82
2022/01/11 10:18:01;;;;;;;13.73;9.73;;;10.20;59.50;;;;;;5042465;28;20029;-82
2022/01/11 10:20:28;;;;;;;11.88;8.88;;;10.30;58.90;;;;;;5038885;28;20045;-83
2022/01/11 10:23:01;;;;;;;11.52;8.60;;;10.40;58.10;;;;;;5053908;28;20037;-80
2022/01/11 10:25:30;;;;;;;11.23;8.13;;;10.50;57.90;;;;;;5040114;28;20041;-79
2022/01/11 10:28:02;;;;;;;9.07;7.80;;;10.60;57.60;;;;;;5037654;28;20091;-79
2022/01/11 10:30:28;;;;;;;10.55;7.50;;;10.70;56.40;;;;;;5033476;28;20148;-86
2022/01/11 10:32:58;;;;;;;7.55;6.70;;;10.80;55.70;;;;;;5051038;28;20076;-84
2022/01/11 10:35:40;;;;;;;7.07;5.95;;;10.80;55.50;;;;;;5037186;28;20037;-87
2022/01/11 10:38:06;;;;;;;9.00;6.80;;;10.90;53.40;;;;;;5037428;28;20029;-86
2022/01/11 10:40:39;;;;;;;9.07;6.47;;;11.10;54.00;;;;;;5035398;28;20038;-79
2022/01/11 10:43:14;;;;;;;8.45;6.80;;;11.30;54.10;;;;;;5032980;28;20088;-78
2022/01/11 10:45:43;;;;;;;10.20;6.60;;;11.60;53.10;;;;;;5036606;28;20436;-79
2022/01/11 10:48:13;;;;;;;9.50;6.80;;;11.80;53.60;;;;;;5041255;28;20091;-78
2022/01/11 10:50:45;;;;;;;170.60;120.45;;;12.00;52.90;;;;;;5015401;28;20052;-78
2022/01/11 10:53:20;;;;;;;164.40;125.57;;;12.20;52.70;;;;;;5041185;28;20422;-78
2022/01/11 10:55:54;;;;;;;38.78;29.98;;;12.40;48.20;;;;;;5040866;28;20042;-78
2022/01/11 10:58:22;;;;;;;14.13;10.77;;;12.50;49.70;;;;;;5044157;28;20109;-78
2022/01/11 11:00:53;;;;;;;9.15;7.10;;;12.60;49.80;;;;;;5047053;28;20044;-78
2022/01/11 11:03:24;;;;;;;7.25;5.72;;;12.60;45.10;;;;;;5045434;28;20037;-79
2022/01/11 11:05:50;;;;;;;8.75;5.20;;;12.70;49.10;;;;;;5044256;28;20041;-78
2022/01/11 11:08:24;;;;;;;6.00;4.47;;;12.90;46.10;;;;;;5027514;28;20025;-78
2022/01/11 11:10:56;;;;;;;5.13;4.35;;;13.00;48.20;;;;;;5046461;28;20030;-77
2022/01/11 11:13:22;;;;;;;5.38;3.90;;;13.20;48.00;;;;;;5040963;28;20033;-78
2022/01/11 11:15:51;;;;;;;3.67;3.20;;;13.30;46.40;;;;;;5028471;28;20036;-77
2022/01/11 11:18:27;;;;;;;8.18;3.55;;;13.30;45.70;;;;;;5044577;28;20036;-77
2022/01/11 11:20:54;;;;;;;5.15;3.67;;;13.50;44.20;;;;;;5026479;28;20069;-79
2022/01/11 11:23:20;;;;;;;5.05;3.47;;;13.60;44.00;;;;;;5028559;28;20553;-78
2022/01/11 11:25:46;;;;;;;4.60;3.17;;;13.70;44.80;;;;;;5026888;28;20128;-85
2022/01/11 11:28:12;;;;;;;4.00;3.25;;;13.80;42.10;;;;;;5030023;28;20034;-85
2022/01/11 11:30:39;;;;;;;4.95;3.60;;;13.90;44.50;;;;;;5028996;28;20454;-83
2022/01/11 11:33:06;;;;;;;4.05;2.85;;;14.10;44.20;;;;;;5049001;28;20094;-78
2022/01/11 11:35:32;;;;;;;5.40;3.80;;;14.40;43.70;;;;;;5029647;28;20041;-79
2022/01/11 11:38:01;;;;;;;4.60;3.30;;;14.60;40.10;;;;;;5031562;28;20793;-80
2022/01/11 11:40:28;;;;;;;7.72;4.68;;;14.60;37.00;;;;;;5043516;28;20029;-84
2022/01/11 11:42:59;;;;;;;3.80;3.35;;;14.60;36.40;;;;;;5035417;28;20120;-79
2022/01/11 11:45:36;;;;;;;3.88;3.08;;;14.70;40.00;;;;;;5045841;28;20529;-79
2022/01/11 11:48:14;;;;;;;2.88;2.40;;;15.00;38.60;;;;;;5025199;28;20786;-80
2022/01/11 11:51:01;;;;;;;2.50;2.00;;;15.00;35.60;;;;;;5044721;28;20059;-79
2022/01/11 11:53:38;;;;;;;3.05;2.45;;;16.00;36.80;;;;;;5044709;28;20084;-80
2022/01/11 11:56:25;;;;;;;4.25;2.92;;;17.20;35.30;;;;;;5046252;28;20128;-79
2022/01/11 11:58:55;;;;;;;3.22;2.25;;;17.70;27.80;;;;;;5045617;28;20037;-79
2022/01/11 12:01:42;;;;;;;;;;;18.80;30.10;;;;;;5038665;28;20817;-81
2022/01/11 12:04:27;;;;;;;3.25;2.13;;;20.00;29.10;;;;;;5052125;28;19913;-80
2022/01/11 12:06:55;;;;;;;2.65;2.30;;;21.10;27.70;;;;;;5053679;28;20029;-80
2022/01/11 12:09:21;;;;;;;2.45;2.08;;;21.40;26.50;;;;;;5036502;28;20045;-80
2022/01/11 12:11:50;;;;;;;3.35;2.70;;;22.10;26.00;;;;;;5052455;28;20044;-80
2022/01/11 12:14:36;;;;;;;4.32;2.78;;;22.80;25.50;;;;;;5032666;28;20397;-80
2022/01/11 12:17:22;;;;;;;4.05;2.75;;;23.30;24.70;;;;;;5046890;28;20772;-80
2022/01/11 12:19:49;;;;;;;3.38;2.83;;;23.70;24.50;;;;;;5043602;28;20049;-80
2022/01/11 12:22:18;;;;;;;3.40;2.65;;;24.00;23.90;;;;;;5049033;28;20705;-80
2022/01/11 12:24:47;;;;;;;3.75;3.00;;;24.20;24.00;;;;;;5040085;28;20130;-80
2022/01/11 12:27:15;;;;;;;3.67;2.90;;;24.30;23.80;;;;;;5044842;28;20041;-81
2022/01/11 12:30:05;;;;;;;3.17;2.85;;;23.60;23.60;;;;;;5041540;28;20029;-85
2022/01/11 12:32:38;;;;;;;3.33;2.70;;;23.60;23.70;;;;;;5023779;28;20032;-84
2022/01/11 12:35:21;;;;;;;4.90;3.20;;;23.40;23.80;;;;;;5024415;28;20073;-85
2022/01/11 12:37:47;;;;;;;3.78;2.97;;;23.50;24.20;;;;;;5044080;28;20033;-85
2022/01/11 12:40:29;;;;;;;3.20;2.85;;;23.40;24.20;;;;;;5033383;28;20470;-81
2022/01/11 12:43:17;;;;;;;3.65;3.20;;;23.40;24.30;;;;;;5038705;28;20147;-82